Time;durP1;ratioP1;P1;durP2;ratioP2;P2;SDS_P1;SDS_P2;PMS_P1;PMS_P2;Temp;Humidity;BMP_temperature;BMP_pressure;BME280_temperature;BME280_humidity;BME280_pressure;Samples;Min_cycle;Max_cycle;Signal;HPM_P1;HPM_P2
2023/08/01 00:00:31;;;;;;;8.82;2.53;;;14.90;99.90;;;;;;5090450;28;20023;-52
2023/08/01 00:02:57;;;;;;;6.88;2.55;;;13.40;99.90;;;;;;5090447;28;20051;-49
2023/08/01 00:05:23;;;;;;;4.85;2.30;;;13.60;99.90;;;;;;5090536;28;20034;-48
2023/08/01 00:07:49;;;;;;;5.20;2.20;;;15.70;99.90;;;;;;5090297;28;20127;-51
2023/08/01 00:10:16;;;;;;;6.28;2.60;;;14.90;99.90;;;;;;5090716;28;20032;-53
2023/08/01 00:12:42;;;;;;;4.45;2.03;;;13.70;99.90;;;;;;5090211;28;20023;-51
2023/08/01 00:15:08;;;;;;;4.95;1.90;;;14.80;99.90;;;;;;5090036;28;20020;-50
2023/08/01 00:17:34;;;;;;;5.72;2.45;;;14.40;99.90;;;;;;5089993;28;20020;-51
2023/08/01 00:20:04;;;;;;;4.18;2.05;;;15.60;99.90;;;;;;5090448;28;20121;-54
2023/08/01 00:22:29;;;;;;;;;;;14.90;99.90;;;;;;5090383;28;20114;-47
2023/08/01 00:24:55;;;;;;;7.90;2.10;;;;;;;;;;5090029;28;20037;-54
2023/08/01 00:27:21;;;;;;;4.95;2.00;;;14.80;99.90;;;;;;5090058;28;20040;-45
2023/08/01 00:29:47;;;;;;;6.22;2.03;;;14.80;99.90;;;;;;5076319;28;20020;-51
2023/08/01 00:32:12;;;;;;;6.35;2.15;;;14.80;99.90;;;;;;5090239;28;20024;-49
2023/08/01 00:34:38;;;;;;;8.23;2.20;;;14.60;99.90;;;;;;5089899;28;20550;-46
2023/08/01 00:37:05;;;;;;;4.40;2.20;;;12.90;99.90;;;;;;5090229;28;20550;-52
2023/08/01 00:39:30;;;;;;;9.27;3.33;;;15.30;99.90;;;;;;5090051;28;20058;-49
2023/08/01 00:41:56;;;;;;;4.88;2.20;;;14.80;99.90;;;;;;5089921;28;20052;-54
2023/08/01 00:44:22;;;;;;;6.53;2.20;;;14.70;99.90;;;;;;5089950;28;20515;-51
2023/08/01 00:46:48;;;;;;;4.80;2.42;;;15.40;99.90;;;;;;5085518;28;20066;-48
2023/08/01 00:49:14;;;;;;;12.10;2.38;;;14.10;99.90;;;;;;5080184;28;20071;-45
2023/08/01 00:51:41;;;;;;;6.65;2.85;;;14.90;99.90;;;;;;5069578;28;20385;-45
2023/08/01 00:54:06;;;;;;;5.00;2.00;;;16.40;99.90;;;;;;5069900;28;20086;-54
2023/08/01 00:56:32;;;;;;;7.50;2.38;;;;;;;;;;5069762;28;20024;-48
2023/08/01 00:58:58;;;;;;;4.00;2.00;;;16.60;99.90;;;;;;5069477;28;20067;-53
2023/08/01 01:01:24;;;;;;;3.15;1.83;;;13.80;99.90;;;;;;5070099;28;20021;-48
2023/08/01 01:03:50;;;;;;;4.38;2.38;;;13.20;99.90;;;;;;5069421;28;20630;-50
2023/08/01 01:06:26;;;;;;;4.28;2.10;;;14.20;99.90;;;;;;5069532;28;20032;-48
2023/08/01 01:08:54;;;;;;;6.47;2.05;;;;;;;;;;5067613;28;20025;-50
2023/08/01 01:11:19;;;;;;;3.13;1.67;;;14.60;99.90;;;;;;5069297;28;20024;-46
2023/08/01 01:13:45;;;;;;;5.55;2.10;;;14.30;99.90;;;;;;5069429;28;20028;-49
2023/08/01 01:16:11;;;;;;;5.75;2.20;;;15.30;99.90;;;;;;5069257;28;20055;-48
2023/08/01 01:18:36;;;;;;;7.03;1.92;;;14.70;99.90;;;;;;5069456;28;20390;-48
2023/08/01 01:21:02;;;;;;;7.13;2.47;;;15.20;99.90;;;;;;5069249;28;20032;-56
2023/08/01 01:23:28;;;;;;;6.45;1.73;;;16.60;99.90;;;;;;5069293;28;20036;-52
2023/08/01 01:25:56;;;;;;;5.18;1.80;;;14.70;99.90;;;;;;5069128;28;20027;-49
2023/08/01 01:28:22;;;;;;;5.60;2.38;;;15.20;99.90;;;;;;5069271;28;20032;-52
2023/08/01 01:30:49;;;;;;;6.35;2.03;;;14.80;99.90;;;;;;5069199;28;20024;-48
2023/08/01 01:33:16;;;;;;;6.60;2.15;;;16.60;99.90;;;;;;5069157;28;20045;-47
2023/08/01 01:35:41;;;;;;;5.13;2.20;;;13.50;99.90;;;;;;5069998;28;20078;-45
2023/08/01 01:38:07;;;;;;;5.57;1.77;;;14.10;99.90;;;;;;5073051;28;20100;-48
2023/08/01 01:40:34;;;;;;;5.15;2.10;;;;;;;;;;5072953;28;20111;-45
2023/08/01 01:43:00;;;;;;;4.53;2.20;;;13.30;99.90;;;;;;5072935;28;20539;-50
2023/08/01 01:45:26;;;;;;;11.57;2.38;;;14.70;99.90;;;;;;5073534;28;20119;-47
2023/08/01 01:47:52;;;;;;;4.05;2.03;;;13.90;99.90;;;;;;5072628;28;20472;-48
2023/08/01 01:50:18;;;;;;;7.43;2.40;;;15.10;99.90;;;;;;5072665;28;20085;-49
2023/08/01 01:52:45;;;;;;;3.75;1.88;;;16.70;99.90;;;;;;5072537;28;20029;-57
2023/08/01 01:55:10;;;;;;;4.80;1.90;;;15.60;99.90;;;;;;5072186;28;20020;-53
2023/08/01 01:57:36;;;;;;;6.18;1.98;;;14.50;99.90;;;;;;5072376;28;20122;-50
2023/08/01 02:00:05;;;;;;;6.05;2.13;;;15.50;99.90;;;;;;5072022;28;20117;-55
2023/08/01 02:02:31;;;;;;;6.97;2.28;;;14.40;99.90;;;;;;5072482;28;20037;-51
2023/08/01 02:04:57;;;;;;;5.28;2.20;;;15.60;99.90;;;;;;5072275;28;20389;-49
2023/08/01 02:07:23;;;;;;;5.60;2.10;;;15.30;99.90;;;;;;5071935;28;20035;-45
2023/08/01 02:09:48;;;;;;;7.40;2.70;;;16.40;99.90;;;;;;5072071;28;20031;-51
2023/08/01 02:12:14;;;;;;;6.22;2.58;;;15.60;99.90;;;;;;5071938;28;20025;-46
2023/08/01 02:14:40;;;;;;;3.55;1.85;;;14.60;99.90;;;;;;5072326;28;20025;-53
2023/08/01 02:17:07;;;;;;;6.30;2.45;;;15.70;99.90;;;;;;5071768;28;20111;-49
2023/08/01 02:19:32;;;;;;;5.70;1.95;;;15.70;99.90;;;;;;5071970;28;20499;-47
2023/08/01 02:21:58;;;;;;;9.10;2.05;;;15.70;99.90;;;;;;5071874;28;20040;-44
2023/08/01 02:24:24;;;;;;;11.10;2.03;;;16.60;99.90;;;;;;5070565;28;20024;-56
2023/08/01 02:26:50;;;;;;;6.30;2.33;;;15.70;99.90;;;;;;5071712;28;20563;-49
2023/08/01 02:29:16;;;;;;;5.43;2.05;;;15.60;99.90;;;;;;5071773;28;20442;-52
2023/08/01 02:31:42;;;;;;;8.40;2.17;;;16.90;99.90;;;;;;5071870;28;20085;-46
2023/08/01 02:34:07;;;;;;;5.43;2.28;;;13.60;99.90;;;;;;5071529;28;20421;-49
2023/08/01 02:36:33;;;;;;;6.63;2.47;;;;;;;;;;5071631;28;20410;-47
2023/08/01 02:38:59;;;;;;;4.55;1.80;;;15.70;99.90;;;;;;5071390;28;20081;-51
2023/08/01 02:41:25;;;;;;;5.70;2.00;;;15.40;99.90;;;;;;5070191;28;20032;-47
2023/08/01 02:43:51;;;;;;;4.97;1.80;;;13.00;99.90;;;;;;5071584;28;20291;-47
2023/08/01 02:46:16;;;;;;;5.88;2.35;;;15.80;99.90;;;;;;5071264;28;20028;-51
2023/08/01 02:48:42;;;;;;;10.38;2.20;;;15.40;99.90;;;;;;5071382;28;20028;-51
2023/08/01 02:51:09;;;;;;;7.57;2.88;;;15.50;99.90;;;;;;5071359;28;20032;-51
2023/08/01 02:53:35;;;;;;;5.07;2.20;;;13.20;99.90;;;;;;5071148;28;20461;-50
2023/08/01 02:56:01;;;;;;;9.43;2.28;;;17.00;99.90;;;;;;5071073;28;20032;-45
2023/08/01 02:58:27;;;;;;;8.20;2.45;;;15.80;99.90;;;;;;5071409;28;20028;-47
2023/08/01 03:00:52;;;;;;;5.75;1.92;;;14.90;99.90;;;;;;5071178;28;20020;-48
2023/08/01 03:03:18;;;;;;;8.07;2.15;;;15.10;99.90;;;;;;5070990;28;20020;-49
2023/08/01 03:05:43;;;;;;;5.95;2.00;;;12.60;99.90;;;;;;5071138;28;20100;-54
2023/08/01 03:08:09;;;;;;;6.40;2.35;;;13.10;99.90;;;;;;5069496;28;20107;-49
2023/08/01 03:10:35;;;;;;;6.43;2.20;;;16.90;99.90;;;;;;5071077;28;20020;-52
2023/08/01 03:13:00;;;;;;;6.22;2.40;;;13.10;99.90;;;;;;5070933;28;20028;-45
2023/08/01 03:15:28;;;;;;;6.38;2.25;;;16.70;99.90;;;;;;5070850;28;20135;-45
2023/08/01 03:17:53;;;;;;;11.00;2.10;;;13.50;99.90;;;;;;5070817;28;20020;-50
2023/08/01 03:20:19;;;;;;;7.53;2.08;;;14.80;99.90;;;;;;5070572;28;20097;-52
2023/08/01 03:22:44;;;;;;;3.25;1.63;;;15.50;99.90;;;;;;5070680;28;20063;-50
2023/08/01 03:25:10;;;;;;;6.75;2.28;;;13.00;99.90;;;;;;5070758;28;20020;-47
2023/08/01 03:27:36;;;;;;;6.53;2.03;;;14.50;99.90;;;;;;5070510;28;20040;-48
2023/08/01 03:30:04;;;;;;;6.78;2.13;;;15.30;99.90;;;;;;5070665;28;20031;-53
2023/08/01 03:32:30;;;;;;;9.13;2.00;;;15.60;99.90;;;;;;5070298;28;20055;-51
2023/08/01 03:34:56;;;;;;;6.82;2.35;;;14.30;99.90;;;;;;5070496;28;20027;-49
2023/08/01 03:37:22;;;;;;;4.65;2.17;;;17.00;99.90;;;;;;5070198;28;20028;-45
2023/08/01 03:39:47;;;;;;;10.18;2.55;;;16.90;99.90;;;;;;5070636;28;20021;-51
2023/08/01 03:42:13;;;;;;;4.53;2.03;;;16.00;99.90;;;;;;5070663;28;20024;-46
2023/08/01 03:44:38;;;;;;;8.68;2.03;;;14.90;99.90;;;;;;5070052;28;20048;-50
2023/08/01 03:47:05;;;;;;;6.95;2.20;;;;;;;;;;5070400;28;20032;-49
2023/08/01 03:49:32;;;;;;;4.72;2.13;;;15.80;99.90;;;;;;5070057;28;20099;-50
2023/08/01 03:51:57;;;;;;;9.48;1.92;;;15.00;99.90;;;;;;5068829;28;20115;-46
2023/08/01 03:54:24;;;;;;;5.45;2.05;;;15.00;99.90;;;;;;5070007;28;20477;-47
2023/08/01 03:56:49;;;;;;;7.85;2.58;;;14.90;99.90;;;;;;5070265;28;20047;-47
2023/08/01 03:59:15;;;;;;;4.90;1.80;;;14.90;99.90;;;;;;5069696;28;20477;-53
2023/08/01 04:01:41;;;;;;;5.85;2.03;;;15.40;99.90;;;;;;5070040;28;20456;-46
2023/08/01 04:04:08;;;;;;;10.27;2.33;;;14.30;99.90;;;;;;5070200;28;20028;-52
2023/08/01 04:06:33;;;;;;;14.13;2.63;;;14.60;99.90;;;;;;5069796;28;20036;-49
2023/08/01 04:08:59;;;;;;;4.55;2.17;;;15.70;99.90;;;;;;5070273;28;20054;-52
2023/08/01 04:11:26;;;;;;;7.47;1.70;;;13.40;99.90;;;;;;5069922;28;20466;-51
2023/08/01 04:13:52;;;;;;;4.95;2.13;;;15.60;99.90;;;;;;5070109;28;20043;-46
2023/08/01 04:16:18;;;;;;;6.93;1.88;;;14.80;99.90;;;;;;5069698;28;20040;-45
2023/08/01 04:18:43;;;;;;;6.60;1.85;;;15.20;99.90;;;;;;5056928;28;20037;-51
2023/08/01 04:21:09;;;;;;;7.07;1.95;;;13.20;99.90;;;;;;5058830;28;20032;-51
2023/08/01 04:23:35;;;;;;;4.97;1.88;;;14.80;99.90;;;;;;5069711;28;20077;-47
2023/08/01 04:26:00;;;;;;;7.38;2.08;;;12.90;99.90;;;;;;5066869;28;20078;-48
2023/08/01 04:28:26;;;;;;;3.97;1.77;;;15.30;99.90;;;;;;5057883;28;20036;-52
2023/08/01 04:30:52;;;;;;;7.22;2.00;;;15.20;99.90;;;;;;5075706;28;20044;-49
2023/08/01 04:33:18;;;;;;;13.40;1.83;;;15.60;99.90;;;;;;5061755;28;20186;-51
2023/08/01 04:35:44;;;;;;;8.43;2.20;;;12.60;99.90;;;;;;5064756;28;20419;-49
2023/08/01 04:38:12;;;;;;;3.90;1.33;;;14.90;99.90;;;;;;5069061;28;20031;-48
2023/08/01 04:40:39;;;;;;;5.57;1.80;;;;;;;;;;5067961;28;20032;-45
2023/08/01 04:43:04;;;;;;;4.72;2.00;;;15.60;99.90;;;;;;5056056;28;20020;-55
2023/08/01 04:45:30;;;;;;;6.25;2.20;;;;;;;;;;5058276;28;20048;-48
2023/08/01 04:47:56;;;;;;;9.13;2.03;;;15.60;99.90;;;;;;5067142;28;20111;-46
2023/08/01 04:50:21;;;;;;;5.70;1.98;;;14.90;99.90;;;;;;5069293;28;20012;-49
2023/08/01 04:52:47;;;;;;;4.15;1.75;;;15.40;99.90;;;;;;5069237;28;20393;-53
2023/08/01 04:55:12;;;;;;;8.02;1.75;;;15.10;99.90;;;;;;5069492;28;20032;-49
2023/08/01 04:57:39;;;;;;;12.05;1.70;;;15.10;99.90;;;;;;5069730;28;20024;-49
2023/08/01 05:00:06;;;;;;;4.47;1.65;;;14.80;99.90;;;;;;5069983;28;20483;-49
2023/08/01 05:02:32;;;;;;;11.05;2.15;;;;;;;;;;5069714;28;20075;-49
2023/08/01 05:04:57;;;;;;;7.60;1.75;;;14.80;99.90;;;;;;5069535;28;20016;-51
2023/08/01 05:07:23;;;;;;;9.75;2.85;;;14.80;99.90;;;;;;5069605;28;20036;-59
2023/08/01 05:09:48;;;;;;;6.20;1.50;;;14.70;99.90;;;;;;5069159;28;20033;-48
2023/08/01 05:12:14;;;;;;;9.93;1.90;;;16.50;99.90;;;;;;5072230;28;20025;-48
2023/08/01 05:14:40;;;;;;;5.53;1.42;;;14.60;99.90;;;;;;5072525;28;20146;-48
2023/08/01 05:17:06;;;;;;;5.82;1.50;;;15.10;99.90;;;;;;5072314;28;20036;-50
2023/08/01 05:19:31;;;;;;;7.55;1.55;;;15.60;99.90;;;;;;5071176;28;20043;-50
2023/08/01 05:21:57;;;;;;;4.80;1.90;;;15.00;99.90;;;;;;5072393;28;20029;-46
2023/08/01 05:24:22;;;;;;;5.35;1.90;;;16.50;99.90;;;;;;5072897;28;20016;-50
2023/08/01 05:26:48;;;;;;;5.93;1.83;;;15.90;99.90;;;;;;5072869;28;20064;-51
2023/08/01 05:29:14;;;;;;;7.20;2.63;;;12.50;99.90;;;;;;5072804;28;20105;-55
2023/08/01 05:31:39;;;;;;;3.58;1.33;;;15.00;99.90;;;;;;5072316;28;20413;-49
2023/08/01 05:34:05;;;;;;;9.07;2.70;;;15.00;99.90;;;;;;5071765;28;20044;-46
2023/08/01 05:36:30;;;;;;;3.67;1.98;;;15.10;99.90;;;;;;5071957;28;20032;-50
2023/08/01 05:38:57;;;;;;;7.22;2.05;;;15.10;99.90;;;;;;5071696;28;20025;-50
2023/08/01 05:41:23;;;;;;;5.25;1.88;;;15.20;99.90;;;;;;5071707;28;20021;-47
2023/08/01 05:43:49;;;;;;;5.15;1.67;;;15.20;99.90;;;;;;5071619;28;20024;-53
2023/08/01 05:46:15;;;;;;;3.90;1.70;;;15.20;99.90;;;;;;5071521;28;20100;-50
2023/08/01 05:48:41;;;;;;;13.18;1.98;;;15.20;99.90;;;;;;5071634;28;20021;-47
2023/08/01 05:51:07;;;;;;;6.35;1.58;;;15.30;99.90;;;;;;5072720;28;20090;-54
2023/08/01 05:53:33;;;;;;;4.88;1.92;;;15.40;99.90;;;;;;5072600;28;20029;-51
2023/08/01 05:55:58;;;;;;;7.95;1.80;;;15.60;99.90;;;;;;5072508;28;20035;-49
2023/08/01 05:58:24;;;;;;;3.88;2.00;;;15.80;99.90;;;;;;5072529;28;20028;-49
2023/08/01 06:00:50;;;;;;;2.70;1.48;;;16.00;99.90;;;;;;5072153;28;20052;-54
2023/08/01 06:03:16;;;;;;;5.75;1.95;;;17.60;99.90;;;;;;5072286;28;20013;-46
2023/08/01 06:05:42;;;;;;;5.10;1.38;;;15.00;99.90;;;;;;5072229;28;20108;-48
2023/08/01 06:08:08;;;;;;;6.75;1.45;;;16.90;99.90;;;;;;5071882;28;20397;-48
2023/08/01 06:10:35;;;;;;;3.63;1.13;;;17.10;99.90;;;;;;5072277;28;20028;-47
2023/08/01 06:13:01;;;;;;;8.05;1.75;;;17.60;99.90;;;;;;5071903;28;20020;-49
2023/08/01 06:15:27;;;;;;;5.32;1.67;;;18.00;99.90;;;;;;5071956;28;20103;-48
2023/08/01 06:17:52;;;;;;;6.10;1.38;;;18.40;99.90;;;;;;5072019;28;20027;-53
2023/08/01 06:20:18;;;;;;;6.63;1.20;;;18.80;99.90;;;;;;5072109;28;20021;-45
2023/08/01 06:22:44;;;;;;;3.67;1.17;;;18.50;99.90;;;;;;5071921;28;20380;-45
2023/08/01 06:25:10;;;;;;;4.50;1.33;;;19.10;99.90;;;;;;5072164;28;20055;-47
2023/08/01 06:27:36;;;;;;;4.95;1.50;;;19.10;99.90;;;;;;5071605;28;20558;-53
2023/08/01 06:30:02;;;;;;;3.42;1.30;;;19.60;99.90;;;;;;5071865;28;20017;-46
2023/08/01 06:32:27;;;;;;;5.22;1.15;;;19.80;99.90;;;;;;5071274;28;20328;-50
2023/08/01 06:34:53;;;;;;;3.33;1.10;;;21.00;99.90;;;;;;5071922;28;20052;-51
2023/08/01 06:37:19;;;;;;;11.90;1.77;;;20.60;99.90;;;;;;5070433;28;20460;-52
2023/08/01 06:39:44;;;;;;;5.03;1.30;;;20.50;99.90;;;;;;5071696;28;20023;-48
2023/08/01 06:42:10;;;;;;;2.63;1.08;;;20.80;99.90;;;;;;5071527;28;20020;-48
2023/08/01 06:44:35;;;;;;;4.63;0.90;;;21.10;99.90;;;;;;5070205;28;20256;-52
2023/08/01 06:47:01;;;;;;;4.25;1.08;;;20.90;99.90;;;;;;5070860;28;20051;-49
2023/08/01 06:49:26;;;;;;;4.28;1.42;;;20.70;99.90;;;;;;5071314;28;20047;-47
2023/08/01 06:51:52;;;;;;;4.38;1.20;;;20.50;99.90;;;;;;5071247;28;20024;-49
2023/08/01 06:54:18;;;;;;;4.53;1.02;;;20.50;99.90;;;;;;5071078;28;20031;-54
2023/08/01 06:56:47;;;;;;;2.95;1.00;;;22.20;99.90;;;;;;5071137;28;20485;-46
2023/08/01 06:59:14;;;;;;;2.75;1.00;;;20.70;99.90;;;;;;5064168;28;20538;-45
2023/08/01 07:01:40;;;;;;;3.92;1.30;;;21.00;99.90;;;;;;5073095;28;20177;-49
2023/08/01 07:04:06;;;;;;;2.58;1.10;;;20.10;99.90;;;;;;5063647;28;20013;-46
2023/08/01 07:06:31;;;;;;;2.88;0.90;;;21.20;99.90;;;;;;5070333;28;20032;-52
2023/08/01 07:08:57;;;;;;;3.60;1.27;;;21.50;99.90;;;;;;5068304;28;20127;-49
2023/08/01 07:11:23;;;;;;;4.32;1.20;;;21.80;99.90;;;;;;5076740;28;20025;-46
2023/08/01 07:13:48;;;;;;;2.30;0.88;;;22.50;99.90;;;;;;5071144;28;20098;-46
2023/08/01 07:16:15;;;;;;;2.63;1.00;;;22.10;99.90;;;;;;5068312;28;20021;-49
2023/08/01 07:18:40;;;;;;;3.92;1.40;;;22.30;99.90;;;;;;5071058;28;20458;-51
2023/08/01 07:21:06;;;;;;;4.65;1.15;;;22.50;99.90;;;;;;5070828;28;20029;-49
2023/08/01 07:23:34;;;;;;;6.95;1.00;;;22.30;99.90;;;;;;5070939;28;20100;-49
2023/08/01 07:25:59;;;;;;;3.92;1.42;;;21.70;99.90;;;;;;5056968;28;20033;-48
2023/08/01 07:28:25;;;;;;;2.40;0.98;;;21.10;99.90;;;;;;5074264;28;20047;-54
2023/08/01 07:31:08;;;;;;;6.82;1.60;;;20.60;99.90;;;;;;5069963;28;20460;-54
2023/08/01 07:33:35;;;;;;;2.95;1.10;;;20.20;99.90;;;;;;5059313;28;20114;-49
2023/08/01 07:36:01;;;;;;;5.50;1.10;;;19.80;99.90;;;;;;5070627;28;20020;-48
2023/08/01 07:38:27;;;;;;;6.65;1.13;;;19.40;99.90;;;;;;5070133;28;20024;-52
2023/08/01 07:40:55;;;;;;;2.85;1.10;;;19.30;99.90;;;;;;5070476;28;20113;-49
2023/08/01 07:43:20;;;;;;;1.92;1.08;;;19.20;99.90;;;;;;5070329;28;20029;-48
2023/08/01 07:45:46;;;;;;;4.20;1.10;;;19.40;99.90;;;;;;5070422;28;20048;-51
2023/08/01 07:48:12;;;;;;;4.72;1.08;;;19.70;99.90;;;;;;5070139;28;20082;-50
2023/08/01 07:50:38;;;;;;;1.75;0.95;;;20.10;99.90;;;;;;5070287;28;20028;-55
2023/08/01 07:53:03;;;;;;;5.30;1.13;;;20.80;99.90;;;;;;5070104;28;20028;-47
2023/08/01 07:55:32;;;;;;;2.92;1.02;;;20.80;99.90;;;;;;5070480;28;20032;-52
2023/08/01 07:57:58;;;;;;;2.30;1.10;;;21.10;99.90;;;;;;5070354;28;20036;-50
2023/08/01 08:00:24;;;;;;;3.08;1.05;;;23.20;99.90;;;;;;5070201;28;20041;-47
2023/08/01 08:02:49;;;;;;;2.55;0.95;;;21.60;99.90;;;;;;5070271;28;20047;-49
2023/08/01 08:05:15;;;;;;;2.70;0.90;;;22.40;99.90;;;;;;5064967;28;20024;-48
2023/08/01 08:07:40;;;;;;;8.75;1.52;;;21.50;99.90;;;;;;5069030;28;20434;-47
2023/08/01 08:10:06;;;;;;;1.95;0.90;;;21.70;99.90;;;;;;5070415;28;20548;-47
2023/08/01 08:12:32;;;;;;;6.35;0.98;;;21.70;99.90;;;;;;5070266;28;20123;-51
2023/08/01 08:14:58;;;;;;;1.45;0.70;;;22.40;99.90;;;;;;5070077;28;20027;-45
2023/08/01 08:17:24;;;;;;;2.50;0.80;;;22.80;99.90;;;;;;5052260;28;20033;-51
2023/08/01 08:19:49;;;;;;;3.25;1.00;;;22.70;99.90;;;;;;5051519;28;20059;-46
2023/08/01 08:22:15;;;;;;;1.58;0.60;;;23.00;99.90;;;;;;5052818;28;20394;-47
2023/08/01 08:24:41;;;;;;;7.10;1.10;;;23.10;99.90;;;;;;5070144;28;20032;-46
2023/08/01 08:27:06;;;;;;;2.20;0.60;;;23.70;99.90;;;;;;5069962;28;20032;-51
2023/08/01 08:29:32;;;;;;;1.45;0.60;;;23.70;99.90;;;;;;5070067;28;20099;-50
2023/08/01 08:31:58;;;;;;;2.92;1.20;;;23.40;99.90;;;;;;5070380;28;20040;-46
2023/08/01 08:34:24;;;;;;;6.47;0.90;;;23.20;99.90;;;;;;5069869;28;20419;-49
2023/08/01 08:36:52;;;;;;;3.58;1.00;;;22.90;99.90;;;;;;5069953;28;20028;-46
2023/08/01 08:39:18;;;;;;;2.70;0.70;;;23.40;99.90;;;;;;5070039;28;20056;-47
2023/08/01 08:41:48;;;;;;;2.38;0.90;;;23.70;99.90;;;;;;5069835;28;20063;-47
2023/08/01 08:44:20;;;;;;;1.27;0.70;;;23.70;99.90;;;;;;5066833;28;20025;-54
2023/08/01 08:46:50;;;;;;;2.00;0.80;;;23.30;99.90;;;;;;5073521;28;20036;-50
2023/08/01 08:49:17;;;;;;;2.53;0.82;;;23.40;99.90;;;;;;5073321;28;20048;-49
2023/08/01 08:51:45;;;;;;;3.08;0.60;;;23.40;99.90;;;;;;5073879;28;20013;-45
2023/08/01 08:54:11;;;;;;;1.60;0.75;;;23.70;99.90;;;;;;5073895;28;20119;-45
2023/08/01 08:56:38;;;;;;;3.53;0.85;;;24.00;99.90;;;;;;5074045;28;20025;-48
2023/08/01 08:59:05;;;;;;;2.97;0.80;;;23.20;99.90;;;;;;5073797;28;20051;-50
2023/08/01 09:01:32;;;;;;;5.95;0.80;;;24.70;99.90;;;;;;5073567;28;20104;-54
2023/08/01 09:03:58;;;;;;;1.85;0.70;;;23.70;99.90;;;;;;5073729;28;20028;-50
2023/08/01 09:06:34;;;;;;;1.75;0.70;;;24.20;99.90;;;;;;5073414;28;20028;-47
2023/08/01 09:09:09;;;;;;;2.90;0.82;;;23.60;99.90;;;;;;5073908;28;20169;-54
2023/08/01 09:11:51;;;;;;;3.58;0.80;;;24.00;99.90;;;;;;5073333;28;20029;-49
2023/08/01 09:14:17;;;;;;;5.80;0.85;;;23.30;99.90;;;;;;5073794;28;20048;-52
2023/08/01 09:16:44;;;;;;;3.13;0.93;;;23.70;99.90;;;;;;5070610;28;20024;-49
2023/08/01 09:19:12;;;;;;;2.45;0.80;;;23.90;99.90;;;;;;5072177;28;20469;-47
2023/08/01 09:21:39;;;;;;;1.30;0.50;;;22.70;99.90;;;;;;5066254;28;20032;-57
2023/08/01 09:24:09;;;;;;;1.73;0.80;;;23.40;99.90;;;;;;5071005;28;20265;-49
2023/08/01 09:26:35;;;;;;;4.95;1.58;;;22.80;99.90;;;;;;5069421;28;20020;-44
2023/08/01 09:29:01;;;;;;;5.43;1.30;;;22.00;99.90;;;;;;5073274;28;20032;-50
2023/08/01 09:31:31;;;;;;;2.42;0.68;;;21.40;99.90;;;;;;5073222;28;20023;-48
2023/08/01 09:33:58;;;;;;;4.85;0.98;;;21.40;99.90;;;;;;5064234;28;20183;-51
2023/08/01 09:36:24;;;;;;;2.90;1.00;;;22.30;99.90;;;;;;5075723;28;20454;-47
2023/08/01 09:38:50;;;;;;;2.60;0.90;;;23.20;99.90;;;;;;5093466;28;20115;-47
2023/08/01 09:41:20;;;;;;;2.53;0.90;;;23.70;99.90;;;;;;5093243;28;20099;-47
2023/08/01 09:43:49;;;;;;;3.97;0.90;;;24.00;99.90;;;;;;5091755;28;20452;-55
2023/08/01 09:46:15;;;;;;;4.45;1.20;;;23.70;99.90;;;;;;5091567;28;20012;-54
2023/08/01 09:48:41;;;;;;;2.15;0.90;;;23.60;99.90;;;;;;5093286;28;20055;-49
2023/08/01 09:51:11;;;;;;;1.40;0.70;;;22.90;99.90;;;;;;5093178;28;20020;-53
2023/08/01 09:54:06;;;;;;;3.65;1.08;;;22.50;99.90;;;;;;5093372;28;20032;-49
2023/08/01 09:56:32;;;;;;;2.97;1.02;;;25.30;99.90;;;;;;5087108;28;20455;-51
2023/08/01 09:59:00;;;;;;;1.58;0.82;;;23.70;99.90;;;;;;5093213;28;20043;-53
2023/08/01 10:01:27;;;;;;;1.60;0.73;;;22.30;99.90;;;;;;5092919;28;20027;-46
2023/08/01 10:03:53;;;;;;;4.57;0.77;;;22.90;99.90;;;;;;5091013;28;20059;-49
2023/08/01 10:06:21;;;;;;;0.82;0.55;;;23.20;99.90;;;;;;5090696;28;20032;-47
2023/08/01 10:08:48;;;;;;;2.55;0.80;;;23.40;99.90;;;;;;5089728;28;20085;-56
2023/08/01 10:11:16;;;;;;;7.10;1.05;;;23.50;99.90;;;;;;5090371;28;20032;-51
2023/08/01 10:13:43;;;;;;;1.95;0.80;;;21.60;99.90;;;;;;5090683;28;20027;-50
2023/08/01 10:16:10;;;;;;;3.92;0.93;;;23.20;99.90;;;;;;5082167;28;20025;-51
2023/08/01 10:18:40;;;;;;;1.20;0.77;;;23.30;99.90;;;;;;5071936;28;20020;-56
2023/08/01 10:21:07;;;;;;;1.73;0.93;;;22.70;99.90;;;;;;5072491;28;20033;-53
2023/08/01 10:23:34;;;;;;;3.40;1.02;;;22.40;99.90;;;;;;5072415;28;20028;-52
2023/08/01 10:26:02;;;;;;;1.85;0.90;;;22.40;99.90;;;;;;5072230;28;20032;-55
2023/08/01 10:28:35;;;;;;;1.57;0.73;;;22.50;99.90;;;;;;5072187;28;20064;-53
2023/08/01 10:31:15;;;;;;;3.50;0.80;;;22.40;99.90;;;;;;5071966;28;20672;-52
2023/08/01 10:33:42;;;;;;;3.00;0.90;;;22.10;99.90;;;;;;5071870;28;20044;-51
2023/08/01 10:36:27;;;;;;;4.78;1.20;;;22.00;99.90;;;;;;5071985;28;20021;-51
2023/08/01 10:38:54;;;;;;;3.50;0.82;;;22.50;99.90;;;;;;5072183;28;20025;-52
2023/08/01 10:41:20;;;;;;;2.08;0.75;;;23.40;99.90;;;;;;5071771;28;20025;-51
2023/08/01 10:43:46;;;;;;;4.90;0.98;;;24.50;99.90;;;;;;5071908;28;20040;-47
2023/08/01 10:46:11;;;;;;;5.32;1.10;;;24.90;99.90;;;;;;5071781;28;20016;-51
2023/08/01 10:48:51;;;;;;;2.63;0.75;;;25.20;99.90;;;;;;5071718;28;20040;-56
2023/08/01 10:51:17;;;;;;;2.80;1.05;;;24.70;99.90;;;;;;5071722;28;20462;-53
2023/08/01 10:53:43;;;;;;;4.40;0.93;;;25.60;99.90;;;;;;5071963;28;20023;-53
2023/08/01 10:56:16;;;;;;;4.03;0.90;;;25.10;99.90;;;;;;5070099;28;20032;-53
2023/08/01 10:58:41;;;;;;;4.03;0.93;;;24.60;99.90;;;;;;5071534;28;20032;-52
2023/08/01 11:01:07;;;;;;;2.65;0.88;;;24.30;99.90;;;;;;5071232;28;20024;-53
2023/08/01 11:03:37;;;;;;;2.38;0.73;;;24.20;99.90;;;;;;5071602;28;20027;-50
2023/08/01 11:06:03;;;;;;;1.90;0.75;;;23.10;99.90;;;;;;5071515;28;20029;-54
2023/08/01 11:08:40;;;;;;;1.10;0.70;;;23.50;99.90;;;;;;5071291;28;20090;-47
2023/08/01 11:11:10;;;;;;;3.20;0.65;;;23.70;99.90;;;;;;5071532;28;20035;-47
2023/08/01 11:13:36;;;;;;;5.10;0.90;;;24.10;99.90;;;;;;5071265;28;20021;-50
2023/08/01 11:16:03;;;;;;;2.50;0.90;;;24.60;99.90;;;;;;5071238;28;20029;-47
2023/08/01 11:18:29;;;;;;;3.53;0.80;;;23.90;99.90;;;;;;5071527;28;20029;-53
2023/08/01 11:20:55;;;;;;;2.28;0.68;;;23.90;99.90;;;;;;5071307;28;20031;-50
2023/08/01 11:23:28;;;;;;;2.78;0.70;;;23.70;99.90;;;;;;5071390;28;20100;-53
2023/08/01 11:25:54;;;;;;;1.50;0.85;;;23.50;99.90;;;;;;5071280;28;20104;-55
2023/08/01 11:28:22;;;;;;;3.55;1.00;;;23.30;99.90;;;;;;5071023;28;20071;-48
2023/08/01 11:30:48;;;;;;;3.25;0.88;;;23.10;99.90;;;;;;5071043;28;20024;-49
2023/08/01 11:33:24;;;;;;;1.63;0.70;;;22.90;99.90;;;;;;5070046;28;20128;-51
2023/08/01 11:35:52;;;;;;;1.75;0.88;;;23.00;99.90;;;;;;5070654;28;20029;-51
2023/08/01 11:38:18;;;;;;;2.92;1.08;;;23.00;99.90;;;;;;5070948;28;20028;-52
2023/08/01 11:40:44;;;;;;;1.27;0.63;;;22.90;99.90;;;;;;5070457;28;20020;-52
2023/08/01 11:43:10;;;;;;;3.63;1.10;;;22.70;99.90;;;;;;5070802;28;20032;-53
2023/08/01 11:45:35;;;;;;;5.70;1.23;;;22.50;99.90;;;;;;5070625;28;20093;-51
2023/08/01 11:48:01;;;;;;;3.25;0.95;;;22.30;99.90;;;;;;5070728;28;20037;-56
2023/08/01 11:50:27;;;;;;;3.97;1.48;;;22.10;99.90;;;;;;5069349;28;20021;-49
2023/08/01 11:52:53;;;;;;;3.13;0.90;;;23.00;99.90;;;;;;5070504;28;20290;-48
2023/08/01 11:55:23;;;;;;;2.67;0.90;;;23.10;99.90;;;;;;5070481;28;20025;-51
2023/08/01 11:58:07;;;;;;;2.03;0.80;;;23.40;99.90;;;;;;5069083;28;20020;-51
2023/08/01 12:00:32;;;;;;;1.70;0.93;;;23.70;99.90;;;;;;5070500;28;20031;-50
2023/08/01 12:03:13;;;;;;;7.88;1.20;;;24.10;99.90;;;;;;5070303;28;20028;-47
2023/08/01 12:05:45;;;;;;;4.72;1.00;;;24.00;99.90;;;;;;5070401;28;20539;-54
2023/08/01 12:08:12;;;;;;;4.07;0.95;;;23.70;99.90;;;;;;5070321;28;20075;-51
2023/08/01 12:10:45;;;;;;;4.50;1.40;;;23.30;99.90;;;;;;5070600;28;20028;-47
2023/08/01 12:13:24;;;;;;;3.38;1.10;;;23.60;99.90;;;;;;5069887;28;20027;-51
2023/08/01 12:15:51;;;;;;;4.53;1.05;;;23.80;99.90;;;;;;5069204;28;20028;-59
2023/08/01 12:18:27;;;;;;;4.43;1.10;;;23.70;99.90;;;;;;5069428;28;20405;-51
2023/08/01 12:20:53;;;;;;;2.22;0.88;;;24.20;99.90;;;;;;5069195;28;20112;-49
2023/08/01 12:23:20;;;;;;;4.40;1.73;;;26.00;99.90;;;;;;5070366;28;20028;-52
2023/08/01 12:25:46;;;;;;;2.08;0.95;;;24.60;99.90;;;;;;5070330;28;20025;-47
2023/08/01 12:28:14;;;;;;;1.83;0.82;;;24.90;99.90;;;;;;5070348;28;20139;-47
2023/08/01 12:30:43;;;;;;;2.78;1.08;;;24.70;99.90;;;;;;5069975;28;20030;-50
2023/08/01 12:33:09;;;;;;;2.03;0.77;;;24.70;99.90;;;;;;5070338;28;20040;-47
2023/08/01 12:35:40;;;;;;;2.90;0.90;;;26.00;99.90;;;;;;5069973;28;20437;-46
2023/08/01 12:38:06;;;;;;;3.03;0.95;;;25.10;99.90;;;;;;5070336;28;20063;-53
2023/08/01 12:40:31;;;;;;;5.18;1.05;;;25.20;99.90;;;;;;5070174;28;20056;-52
2023/08/01 12:42:57;;;;;;;4.18;1.38;;;24.20;99.90;;;;;;5070031;28;20028;-53
2023/08/01 12:45:23;;;;;;;4.15;1.17;;;24.10;99.90;;;;;;5070108;28;20025;-54
2023/08/01 12:47:49;;;;;;;4.07;1.55;;;23.80;99.90;;;;;;5069113;28;20029;-53